FXMM/MSU METAR and TAF weather

Enter ICAO airport designator
Station Type Date Time Source
FXMM METAR 2018/12/10 15:00 UTC NOAA

FXMM 101500Z 17006KT 9999 SCT035 FEW040CB 21/05 Q1024 NOSIG


Station Type Date Time Source
FXMM Decoded METAR 2018/12/10 15:00 UTC NOAA

Maseru / Moshoeshoe, Lesotho (FXMM) 29-27S 027-33E
Dec 10, 2018 - 10:00 AM EST / 2018.12.10 1500 UTC
Wind: from the S (170 degrees) at 7 MPH (6 KT):0
Visibility: greater than 7 mile(s):0
Sky conditions: partly cloudy
Weather: Cumulonimbus clouds observed
Temperature: 69 F (21 C)
Dew Point: 41 F (5 C)
Relative Humidity: 35%
Pressure (altimeter): 30.24 in. Hg (1024 hPa)
ob: FXMM 101500Z 17006KT 9999 SCT035 FEW040CB 21/05 Q1024 NOSIG
cycle: 15

Station Type Date Time Source
FXMM TAF 2018/12/05 06:21 UTC NOAA

TAF TAF FXMM 050400Z 0506/0606 00000KT CAVOK
BECMG 0506/0508 23004KT
FM050900 29012KT 9999 FEW035 SCT///
BECMG 0513/0515 BKN///
FM051600 33006KT CAVOK
FM060200 03004KT 9999 BKN///


Example: see airport list